createdAt,value
2019-02-25T00:02:08.358Z,4.40
2019-02-25T00:07:13.527Z,4.37
2019-02-25T00:12:19.310Z,4.53
2019-02-25T00:17:24.521Z,4.90
2019-02-25T00:22:30.406Z,4.70
2019-02-25T00:27:36.139Z,4.83
2019-02-25T00:32:42.173Z,5.30
2019-02-25T00:37:47.543Z,4.87
2019-02-25T00:42:52.803Z,5.20
2019-02-25T00:47:57.960Z,4.77
2019-02-25T00:53:03.070Z,5.20
2019-02-25T00:58:08.733Z,4.80
2019-02-25T01:03:14.198Z,4.60
2019-02-25T01:08:19.741Z,4.53
2019-02-25T01:13:24.901Z,4.70
2019-02-25T01:18:30.404Z,5.00
2019-02-25T01:23:35.849Z,4.87
2019-02-25T01:28:40.926Z,4.63
2019-02-25T01:33:46.831Z,4.83
2019-02-25T01:38:51.910Z,4.93
2019-02-25T01:43:57.559Z,4.50
2019-02-25T01:49:04.234Z,4.63
2019-02-25T01:54:09.731Z,4.70
2019-02-25T01:59:14.834Z,4.73
2019-02-25T02:04:19.837Z,4.87
2019-02-25T02:09:25.074Z,4.27
2019-02-25T02:14:31.080Z,4.73
2019-02-25T02:19:36.157Z,4.63
2019-02-25T02:24:41.311Z,4.60
2019-02-25T02:29:46.386Z,4.80
2019-02-25T02:34:52.001Z,4.33
2019-02-25T02:39:57.004Z,4.37
2019-02-25T02:45:21.388Z,4.70
2019-02-25T02:50:27.262Z,4.40
2019-02-25T02:55:32.387Z,4.87
2019-02-25T03:00:37.549Z,4.37
2019-02-25T03:05:42.726Z,4.30
2019-02-25T03:10:47.807Z,4.27
2019-02-25T03:15:52.893Z,4.73
2019-02-25T03:20:57.980Z,4.63
2019-02-25T03:26:03.189Z,4.47
2019-02-25T03:31:08.995Z,4.50
2019-02-25T03:36:14.493Z,4.60
2019-02-25T03:41:20.517Z,4.67
2019-02-25T03:46:26.281Z,4.57
2019-02-25T03:51:31.361Z,4.40
2019-02-25T03:56:36.516Z,4.70
2019-02-25T04:01:41.946Z,4.60
2019-02-25T04:06:47.412Z,4.47
2019-02-25T04:11:52.486Z,4.17
2019-02-25T04:17:00.217Z,4.57
2019-02-25T04:22:06.221Z,4.27
2019-02-25T04:27:11.403Z,4.30
2019-02-25T04:32:17.001Z,5.03
2019-02-25T04:37:22.403Z,4.03
2019-02-25T04:42:28.940Z,4.30
2019-02-25T04:47:34.688Z,4.63
2019-02-25T04:52:39.989Z,4.20
2019-02-25T04:57:46.202Z,4.70
2019-02-25T05:02:51.375Z,4.50
2019-02-25T05:07:56.730Z,4.03
2019-02-25T05:13:05.789Z,4.60
2019-02-25T05:18:10.962Z,4.73
2019-02-25T05:23:17.120Z,5.40
2019-02-25T05:28:23.341Z,4.67
2019-02-25T05:33:28.934Z,4.80
2019-02-25T05:38:34.103Z,4.70
2019-02-25T05:43:39.317Z,4.93
2019-02-25T05:48:44.894Z,4.50
2019-02-25T05:53:50.072Z,4.50
2019-02-25T05:58:56.011Z,4.20
2019-02-25T06:04:01.544Z,4.13
2019-02-25T06:09:08.592Z,4.10
2019-02-25T06:14:14.459Z,4.30
2019-02-25T06:19:19.765Z,4.60
2019-02-25T06:24:25.294Z,4.13
2019-02-25T06:29:30.478Z,4.07
2019-02-25T06:34:36.020Z,4.13
2019-02-25T06:39:42.201Z,3.97
2019-02-25T06:44:47.403Z,4.37
2019-02-25T06:49:52.583Z,4.30
2019-02-25T06:54:57.878Z,4.30
2019-02-25T07:00:03.102Z,3.90
2019-02-25T07:05:23.619Z,4.07
2019-02-25T07:10:59.871Z,3.87
2019-02-25T07:16:29.950Z,3.60
2019-02-25T07:21:53.438Z,4.17
2019-02-25T07:27:24.897Z,4.20
2019-02-25T07:32:53.231Z,4.80
2019-02-25T07:38:26.267Z,4.90
2019-02-25T07:43:56.435Z,4.00
2019-02-25T07:49:20.629Z,3.97
2019-02-25T07:55:03.246Z,4.20
2019-02-25T08:00:18.613Z,4.33
2019-02-25T08:05:42.758Z,4.33
2019-02-25T08:11:03.264Z,5.37
2019-02-25T08:16:27.486Z,5.77
2019-02-25T08:21:57.471Z,6.60
2019-02-25T08:27:27.320Z,5.03
2019-02-25T08:32:51.723Z,5.53
2019-02-25T08:38:22.952Z,5.40
2019-02-25T08:43:32.518Z,4.77
2019-02-25T08:48:42.582Z,4.27
2019-02-25T08:53:47.777Z,4.43
2019-02-25T08:58:52.951Z,5.17
2019-02-25T09:03:58.483Z,4.90
2019-02-25T09:09:04.460Z,4.07
2019-02-25T09:14:10.803Z,4.03
2019-02-25T09:19:16.024Z,4.53
2019-02-25T09:24:21.288Z,5.33
2019-02-25T09:29:28.580Z,4.83
2019-02-25T09:34:33.753Z,4.40
2019-02-25T09:39:39.270Z,4.80
2019-02-25T09:44:46.094Z,4.47
2019-02-25T09:49:51.253Z,5.30
2019-02-25T09:54:56.720Z,4.80
2019-02-25T10:00:02.243Z,4.67
2019-02-25T10:05:08.034Z,5.30
2019-02-25T10:10:13.905Z,5.20
2019-02-25T10:15:19.270Z,5.00
2019-02-25T10:20:24.612Z,5.20
2019-02-25T10:25:29.788Z,5.27
2019-02-25T10:30:35.241Z,5.00
2019-02-25T10:35:40.701Z,5.43
2019-02-25T10:40:47.511Z,4.97
2019-02-25T10:45:53.271Z,5.10
2019-02-25T10:50:58.689Z,5.50
2019-02-25T10:56:11.240Z,5.45
2019-02-25T11:01:19.677Z,5.50
2019-02-25T11:06:25.156Z,5.70
2019-02-25T11:11:33.805Z,6.33
2019-02-25T11:16:39.414Z,6.03
2019-02-25T11:21:45.082Z,5.95
2019-02-25T11:26:50.327Z,5.87
2019-02-25T11:31:55.679Z,5.67
2019-02-25T11:37:00.938Z,6.03
2019-02-25T11:42:08.032Z,5.50
2019-02-25T11:47:13.454Z,5.28
2019-02-25T11:52:18.722Z,5.40
2019-02-25T11:57:23.966Z,4.97
2019-02-25T12:02:29.282Z,4.97
2019-02-25T12:07:34.897Z,4.80
2019-02-25T12:12:40.148Z,4.78
2019-02-25T12:17:46.062Z,4.70
2019-02-25T12:22:51.331Z,4.35
2019-02-25T12:27:56.944Z,4.40
2019-02-25T12:33:02.527Z,4.10
2019-02-25T12:38:07.780Z,3.72
2019-02-25T12:43:13.155Z,4.53
2019-02-25T12:48:18.840Z,4.45
2019-02-25T12:53:24.098Z,4.85
2019-02-25T12:58:29.347Z,4.53
2019-02-25T13:03:34.597Z,4.45
2019-02-25T13:08:39.855Z,4.42
2019-02-25T13:13:45.101Z,4.33
2019-02-25T13:18:50.370Z,4.50
2019-02-25T13:23:56.963Z,3.50
2019-02-25T13:29:03.556Z,4.03
2019-02-25T13:34:09.160Z,4.50
2019-02-25T13:39:14.423Z,4.30
2019-02-25T13:44:19.890Z,4.25
2019-02-25T13:49:25.179Z,3.80
2019-02-25T13:54:30.441Z,4.40
2019-02-25T13:59:35.796Z,4.22
2019-02-25T14:04:41.059Z,4.97
2019-02-25T14:09:46.837Z,4.33
2019-02-25T14:14:52.899Z,4.37
2019-02-25T14:19:58.583Z,4.90
2019-02-25T14:25:05.297Z,5.00
2019-02-25T14:30:14.424Z,4.85
2019-02-25T14:35:20.003Z,4.50
2019-02-25T14:40:26.888Z,4.60
2019-02-25T14:45:34.457Z,4.95
2019-02-25T14:50:39.339Z,4.28
2019-02-25T14:55:47.775Z,3.90
2019-02-25T15:00:52.544Z,3.70
2019-02-25T15:05:59.232Z,3.87
2019-02-25T15:11:07.161Z,4.10
2019-02-25T15:16:13.489Z,3.95
2019-02-25T15:21:19.132Z,4.60
2019-02-25T15:26:25.744Z,3.92
2019-02-25T15:31:32.459Z,4.25
2019-02-25T15:36:38.342Z,4.00
2019-02-25T15:41:44.366Z,3.80
2019-02-25T15:46:51.126Z,3.77
2019-02-25T15:51:57.665Z,3.87
2019-02-25T15:57:03.765Z,4.10
2019-02-25T16:02:13.663Z,4.42
2019-02-25T16:07:18.758Z,4.70
2019-02-25T16:12:25.419Z,5.35
2019-02-25T16:17:30.995Z,5.45
2019-02-25T16:22:38.510Z,5.62
2019-02-25T16:27:45.017Z,4.70
2019-02-25T16:32:50.328Z,4.70
2019-02-25T16:37:57.477Z,5.03
2019-02-25T16:43:04.671Z,4.67
2019-02-25T16:48:10.014Z,5.15
2019-02-25T16:53:17.814Z,4.90
2019-02-25T16:58:22.603Z,4.47
2019-02-25T17:03:27.971Z,5.08
2019-02-25T17:08:34.536Z,5.70
2019-02-25T17:13:41.477Z,5.83
2019-02-25T17:18:46.924Z,5.92
2019-02-25T17:23:54.045Z,6.12
2019-02-25T17:28:59.241Z,6.12
2019-02-25T17:34:04.494Z,6.62
2019-02-25T17:39:10.860Z,6.70
2019-02-25T17:44:17.891Z,5.92
2019-02-25T17:49:25.788Z,6.60
2019-02-25T17:54:32.956Z,7.03
2019-02-25T17:59:39.189Z,6.87
2019-02-25T18:04:47.025Z,7.97
2019-02-25T18:09:54.267Z,9.95
2019-02-25T18:15:01.129Z,9.43
2019-02-25T18:20:08.586Z,6.97
2019-02-25T18:25:14.448Z,6.67
2019-02-25T18:30:20.771Z,6.60
2019-02-25T18:35:26.579Z,6.53
2019-02-25T18:40:33.472Z,6.35
2019-02-25T18:45:41.056Z,6.42
2019-02-25T18:50:49.493Z,8.88
2019-02-25T18:55:55.024Z,9.33
2019-02-25T19:01:01.953Z,8.35
2019-02-25T19:06:08.400Z,7.42
2019-02-25T19:11:15.110Z,7.50
2019-02-25T19:16:24.263Z,8.53
2019-02-25T19:21:31.755Z,7.00
2019-02-25T19:26:39.918Z,7.40
2019-02-25T19:31:45.131Z,17.70
2019-02-25T19:36:50.964Z,7.90
2019-02-25T19:41:57.939Z,7.00
2019-02-25T19:47:03.509Z,7.95
2019-02-25T19:52:09.718Z,7.45
2019-02-25T19:57:18.807Z,7.00
2019-02-25T20:02:24.775Z,7.10
2019-02-25T20:07:33.258Z,8.10
2019-02-25T20:12:38.204Z,9.13
2019-02-25T20:17:46.763Z,7.75
2019-02-25T20:22:52.171Z,6.60
2019-02-25T20:27:59.836Z,6.97
2019-02-25T20:33:06.349Z,8.30
2019-02-25T20:38:11.738Z,7.80
2019-02-25T20:43:19.310Z,8.23
2019-02-25T20:48:24.239Z,7.43
2019-02-25T20:53:31.672Z,7.07
2019-02-25T20:58:38.322Z,6.90
2019-02-25T21:03:46.025Z,7.33
2019-02-25T21:08:51.887Z,7.05
2019-02-25T21:13:57.156Z,7.90
2019-02-25T21:19:02.320Z,7.43
2019-02-25T21:24:08.760Z,6.90
2019-02-25T21:29:14.835Z,6.60
2019-02-25T21:34:24.127Z,6.40
2019-02-25T21:39:27.608Z,6.42
2019-02-25T21:44:33.623Z,6.00
2019-02-25T21:49:40.531Z,6.35
2019-02-25T21:54:46.202Z,6.03
2019-02-25T21:59:51.754Z,6.20
2019-02-25T22:04:56.930Z,6.10
2019-02-25T22:10:02.410Z,6.30
2019-02-25T22:15:10.823Z,6.03
2019-02-25T22:20:19.035Z,7.37
2019-02-25T22:25:23.781Z,7.17
2019-02-25T22:30:29.364Z,7.13
2019-02-25T22:35:37.419Z,7.20
2019-02-25T22:40:42.107Z,6.40
2019-02-25T22:45:47.310Z,6.97
2019-02-25T22:50:55.359Z,6.87
2019-02-25T22:56:00.308Z,7.20
2019-02-25T23:01:17.569Z,6.50
2019-02-25T23:06:21.342Z,6.97
2019-02-25T23:11:27.555Z,6.83
2019-02-25T23:16:32.722Z,6.57
2019-02-25T23:21:38.296Z,6.13
2019-02-25T23:26:43.629Z,6.43
2019-02-25T23:31:48.803Z,6.43
2019-02-25T23:36:55.737Z,6.20
2019-02-25T23:42:04.698Z,5.77
2019-02-25T23:47:08.968Z,6.03
2019-02-25T23:52:15.340Z,6.30
2019-02-25T23:57:21.751Z,6.17
